Change the Weather History Date:

Tuesday, November 12, 2013

  Actual Average Record
Temperature  
Mean Temperature 42 °F -  
Max Temperature 51 °F 63 °F 68 °F (2011)
Min Temperature 32 °F 41 °F 32 °F (2013)
Degree Days  
Heating Degree Days 24    
Moisture  
Dew Point 34 °F    
Average Humidity 73    
Maximum Humidity 100    
Minimum Humidity 46    
Precipitation  
Precipitation 0.00 in - - ()
Sea Level Pressure  
Sea Level Pressure 30.41 in    
Wind  
Wind Speed 4 mph (North)    
Max Wind Speed 17 mph    
Max Gust Speed 26 mph    
Visibility 10 miles    
Events      
Averages and records for this station are not official NWS values.
T = Trace of Precipitation, MM = Missing Value Source: NWS Daily Summary

Daily Weather History Graph

Daily Weather History Graph

Search for Another Location

Airport or City:

Trip Planner

Search our weather history database for the weather conditions in past years. The results will help you decide how hot, cold, wet, or windy it might be!

Date:

Astronomy

Nov. 12, 2013 Rise Set
Actual Time 6:24 AM CST 4:54 PM CST
Civil Twilight 5:58 AM CST 5:20 PM CST
Nautical Twilight 5:28 AM CST 5:50 PM CST
Astronomical Twilight 4:58 AM CST 6:20 PM CST
Moon 1:56 PM CST (11/12) 1:28 AM CST (11/12)
Length of Visible Light 11h 22m
Length of Day
10h 30m
Waxing Gibbous, 76% of the Moon is Illuminated
Nov 12
Waxing Gibbous
Nov 17
Full
Nov 25
Last Quarter
Dec 2
New
Dec 9
First Quarter

Hourly Weather History & Observations

Time (CST) Temp. Windchill Dew Point Humidity Pressure Visibility Wind Dir Wind Speed Gust Speed Precip Events Conditions
12:15 AM 42.8 °F - 41.0 °F 93% 30.22 in 10.0 mi Calm Calm - N/A   Clear
12:35 AM 42.8 °F - 41.0 °F 93% 30.21 in 10.0 mi Calm Calm - N/A   Clear
12:55 AM 42.8 °F - 41.0 °F 93% 30.21 in 10.0 mi Calm Calm - N/A   Clear
1:15 AM 41.0 °F - 41.0 °F 100% 30.21 in 10.0 mi Calm Calm - N/A   Clear
1:35 AM 41.0 °F - 41.0 °F 100% 30.21 in 10.0 mi Calm Calm - N/A   Scattered Clouds
1:55 AM 42.8 °F - 41.0 °F 93% 30.21 in 10.0 mi Calm Calm - N/A   Mostly Cloudy
2:15 AM 42.8 °F - 42.8 °F 100% 30.21 in 10.0 mi Calm Calm - N/A   Mostly Cloudy
2:35 AM 42.8 °F - 41.0 °F 93% 30.22 in 10.0 mi Calm Calm - N/A   Clear
2:55 AM 41.0 °F - 41.0 °F 100% 30.22 in 10.0 mi Calm Calm - N/A   Clear
3:15 AM 41.0 °F - 41.0 °F 100% 30.22 in 10.0 mi Calm Calm - N/A   Clear
3:35 AM 41.0 °F - 41.0 °F 100% 30.22 in 10.0 mi Calm Calm - N/A   Clear
3:55 AM 41.0 °F - 41.0 °F 100% 30.22 in 10.0 mi Calm Calm - N/A   Clear
4:15 AM 41.0 °F - 39.2 °F 93% 30.22 in 10.0 mi Calm Calm - N/A   Clear
4:35 AM 41.0 °F - 39.2 °F 93% 30.23 in 10.0 mi Calm Calm - N/A   Clear
4:55 AM 41.0 °F - 39.2 °F 93% 30.23 in 7.0 mi Calm Calm - N/A   Clear
5:15 AM 41.0 °F - 39.2 °F 93% 30.24 in 10.0 mi Calm Calm - N/A   Clear
5:35 AM 41.0 °F - 41.0 °F 100% 30.25 in 10.0 mi Calm Calm - N/A   Clear
5:55 AM 46.4 °F 43.5 °F 44.6 °F 93% 30.26 in 10.0 mi NNW 5.8 mph - N/A   Clear
6:15 AM 46.4 °F 45.2 °F 44.6 °F 93% 30.27 in 10.0 mi NNW 3.5 mph - N/A   Clear
6:35 AM 44.6 °F 43.1 °F 42.8 °F 93% 30.28 in 10.0 mi NNW 3.5 mph - N/A   Scattered Clouds
6:55 AM 46.4 °F 44.3 °F 44.6 °F 93% 30.30 in 10.0 mi NNW 4.6 mph - N/A   Mostly Cloudy
7:15 AM 46.4 °F 45.2 °F 44.6 °F 93% 30.31 in 10.0 mi NNW 3.5 mph - N/A   Mostly Cloudy
7:35 AM 48.2 °F - 44.6 °F 87% 30.32 in 10.0 mi NNW 5.8 mph - N/A   Mostly Cloudy
7:55 AM 50.0 °F - 46.4 °F 87% 30.33 in 10.0 mi NNW 5.8 mph - N/A   Overcast
8:15 AM 51.8 °F - 46.4 °F 82% 30.35 in 10.0 mi North 5.8 mph 18.4 mph N/A   Overcast
8:35 AM 51.8 °F - 44.6 °F 76% 30.36 in 10.0 mi North 11.5 mph 19.6 mph N/A   Overcast
8:55 AM 50.0 °F - 42.8 °F 76% 30.38 in 10.0 mi North 10.4 mph 20.7 mph N/A   Overcast
9:15 AM 50.0 °F - 41.0 °F 71% 30.39 in 10.0 mi North 12.7 mph 23.0 mph N/A   Overcast
9:35 AM 48.2 °F - 41.0 °F 76% 30.41 in 10.0 mi North 11.5 mph 18.4 mph N/A   Overcast
9:55 AM 46.4 °F 41.9 °F 37.4 °F 71% 30.43 in 10.0 mi North 9.2 mph 25.3 mph N/A   Overcast
10:15 AM 46.4 °F 41.1 °F 37.4 °F 71% 30.43 in 10.0 mi North 11.5 mph 20.7 mph N/A   Overcast
10:35 AM 46.4 °F 41.1 °F 37.4 °F 71% 30.44 in 10.0 mi North 11.5 mph 23.0 mph N/A   Overcast
10:55 AM 46.4 °F 40.4 °F 37.4 °F 71% 30.44 in 10.0 mi North 13.8 mph 24.2 mph N/A   Overcast
11:15 AM 46.4 °F 40.1 °F 35.6 °F 66% 30.45 in 10.0 mi North 15.0 mph 26.5 mph N/A   Overcast
11:35 AM 46.4 °F 40.4 °F 35.6 °F 66% 30.45 in 10.0 mi North 13.8 mph 21.9 mph N/A   Overcast
11:55 AM 46.4 °F 40.1 °F 35.6 °F 66% 30.45 in 10.0 mi North 15.0 mph 25.3 mph N/A   Overcast
12:15 PM 44.6 °F 38.4 °F 35.6 °F 71% 30.45 in 10.0 mi North 12.7 mph 21.9 mph N/A   Overcast
12:35 PM 46.4 °F 40.4 °F 33.8 °F 62% 30.45 in 10.0 mi North 13.8 mph 21.9 mph N/A   Overcast
12:55 PM 44.6 °F 40.2 °F 33.8 °F 66% 30.45 in 10.0 mi North 8.1 mph 21.9 mph N/A   Overcast
1:15 PM 44.6 °F 38.1 °F 33.8 °F 66% 30.45 in 10.0 mi North 13.8 mph 20.7 mph N/A   Overcast
1:35 PM 46.4 °F 40.4 °F 32.0 °F 57% 30.45 in 10.0 mi NNE 13.8 mph 23.0 mph N/A   Scattered Clouds
1:55 PM 46.4 °F 41.1 °F 32.0 °F 57% 30.45 in 10.0 mi North 11.5 mph 21.9 mph N/A   Clear
2:15 PM 46.4 °F 40.4 °F 30.2 °F 53% 30.45 in 10.0 mi North 13.8 mph 21.9 mph N/A   Clear
2:35 PM 48.2 °F - 30.2 °F 50% 30.44 in 10.0 mi NNE 17.3 mph 23.0 mph N/A   Clear
2:55 PM 46.4 °F 41.5 °F 28.4 °F 50% 30.45 in 10.0 mi North 10.4 mph 23.0 mph N/A   Clear
3:15 PM 46.4 °F 40.4 °F 28.4 °F 50% 30.45 in 10.0 mi North 13.8 mph 20.7 mph N/A   Clear
3:35 PM 46.4 °F 39.8 °F 28.4 °F 50% 30.45 in 10.0 mi North 16.1 mph 23.0 mph N/A   Clear
3:55 PM 46.4 °F 40.7 °F 26.6 °F 46% 30.46 in 10.0 mi North 12.7 mph 18.4 mph N/A   Clear
4:15 PM 44.6 °F 38.4 °F 26.6 °F 49% 30.47 in 10.0 mi North 12.7 mph 20.7 mph N/A   Clear
4:35 PM 44.6 °F 40.2 °F 28.4 °F 53% 30.49 in 10.0 mi North 8.1 mph 21.9 mph N/A   Clear
4:55 PM 42.8 °F 38.6 °F 26.6 °F 53% 30.49 in 10.0 mi North 6.9 mph 17.3 mph N/A   Clear
5:15 PM 42.8 °F 38.0 °F 26.6 °F 53% 30.50 in 10.0 mi North 8.1 mph 16.1 mph N/A   Clear
5:35 PM 41.0 °F 38.0 °F 26.6 °F 57% 30.50 in 10.0 mi North 4.6 mph - N/A   Clear
5:55 PM 41.0 °F 37.1 °F 26.6 °F 57% 30.51 in 10.0 mi North 5.8 mph - N/A   Clear
6:15 PM 41.0 °F 37.1 °F 26.6 °F 57% 30.51 in 10.0 mi North 5.8 mph - N/A   Clear
6:35 PM 39.2 °F 33.6 °F 26.6 °F 61% 30.52 in 10.0 mi North 8.1 mph - N/A   Clear
6:55 PM 39.2 °F 35.9 °F 26.6 °F 61% 30.53 in 10.0 mi North 4.6 mph - N/A   Clear
7:15 PM 37.4 °F 33.8 °F 26.6 °F 65% 30.54 in 10.0 mi North 4.6 mph - N/A   Clear
7:35 PM 37.4 °F 33.8 °F 24.8 °F 60% 30.55 in 10.0 mi North 4.6 mph - N/A   Clear
7:55 PM 37.4 °F 32.8 °F 23.0 °F 56% 30.55 in 10.0 mi North 5.8 mph - N/A   Clear
8:15 PM 37.4 °F 32.8 °F 23.0 °F 56% 30.56 in 10.0 mi North 5.8 mph - N/A   Clear
8:35 PM 37.4 °F 33.8 °F 23.0 °F 56% 30.57 in 10.0 mi North 4.6 mph - N/A   Clear
8:55 PM 35.6 °F 29.9 °F 23.0 °F 60% 30.57 in 10.0 mi North 6.9 mph - N/A   Clear
9:15 PM 35.6 °F 31.7 °F 23.0 °F 60% 30.57 in 10.0 mi North 4.6 mph - N/A   Clear
9:35 PM 35.6 °F - 23.0 °F 60% 30.57 in 10.0 mi Calm Calm - N/A   Clear
9:55 PM 33.8 °F 30.8 °F 23.0 °F 65% 30.58 in 10.0 mi North 3.5 mph - N/A   Clear
10:15 PM 33.8 °F 30.8 °F 23.0 °F 65% 30.58 in 10.0 mi North 3.5 mph - N/A   Clear
10:35 PM 33.8 °F 30.8 °F 23.0 °F 65% 30.59 in 10.0 mi North 3.5 mph - N/A   Clear
10:55 PM 33.8 °F 30.8 °F 23.0 °F 65% 30.58 in 10.0 mi North 3.5 mph - N/A   Clear
11:15 PM 32.0 °F - 23.0 °F 69% 30.58 in 10.0 mi Calm Calm - N/A   Clear
11:35 PM 32.0 °F - 23.0 °F 69% 30.58 in 10.0 mi Calm Calm - N/A   Clear
11:55 PM 32.0 °F 27.5 °F 23.0 °F 69% 30.58 in 10.0 mi NNW 4.6 mph - N/A   Clear